sensor_id;sensor_type;location;lat;lon;timestamp;P1;durP1;ratioP1;P2;durP2;ratioP2
26271;SDS011;13997;48.902;12.472;2023-01-10T00:00:21;7.53;;;2.90;;
26271;SDS011;13997;48.902;12.472;2023-01-10T00:02:49;4.43;;;2.85;;
26271;SDS011;13997;48.902;12.472;2023-01-10T00:05:15;4.35;;;2.83;;
26271;SDS011;13997;48.902;12.472;2023-01-10T00:07:40;5.20;;;2.67;;
26271;SDS011;13997;48.902;12.472;2023-01-10T00:10:06;3.40;;;2.75;;
26271;SDS011;13997;48.902;12.472;2023-01-10T00:12:32;6.38;;;2.90;;
26271;SDS011;13997;48.902;12.472;2023-01-10T00:15:16;5.45;;;2.88;;
26271;SDS011;13997;48.902;12.472;2023-01-10T00:17:42;6.00;;;3.20;;
26271;SDS011;13997;48.902;12.472;2023-01-10T00:20:08;4.45;;;2.75;;
26271;SDS011;13997;48.902;12.472;2023-01-10T00:22:34;5.60;;;2.53;;
26271;SDS011;13997;48.902;12.472;2023-01-10T00:24:59;7.00;;;3.35;;
26271;SDS011;13997;48.902;12.472;2023-01-10T00:27:25;4.35;;;3.30;;
26271;SDS011;13997;48.902;12.472;2023-01-10T00:29:51;8.13;;;3.00;;
26271;SDS011;13997;48.902;12.472;2023-01-10T00:32:17;7.10;;;3.05;;
26271;SDS011;13997;48.902;12.472;2023-01-10T00:34:43;3.85;;;2.72;;
26271;SDS011;13997;48.902;12.472;2023-01-10T00:37:09;5.97;;;2.78;;
26271;SDS011;13997;48.902;12.472;2023-01-10T00:39:35;7.55;;;2.97;;
26271;SDS011;13997;48.902;12.472;2023-01-10T00:42:00;8.30;;;3.13;;
26271;SDS011;13997;48.902;12.472;2023-01-10T00:44:45;5.35;;;2.50;;
26271;SDS011;13997;48.902;12.472;2023-01-10T00:47:11;4.03;;;2.72;;
26271;SDS011;13997;48.902;12.472;2023-01-10T00:49:37;6.68;;;2.70;;
26271;SDS011;13997;48.902;12.472;2023-01-10T00:52:03;3.85;;;2.45;;
26271;SDS011;13997;48.902;12.472;2023-01-10T00:54:29;4.10;;;2.60;;
26271;SDS011;13997;48.902;12.472;2023-01-10T00:56:55;4.35;;;2.22;;
26271;SDS011;13997;48.902;12.472;2023-01-10T00:59:21;5.20;;;2.45;;
26271;SDS011;13997;48.902;12.472;2023-01-10T01:01:48;4.38;;;2.78;;
26271;SDS011;13997;48.902;12.472;2023-01-10T01:04:14;2.60;;;2.17;;
26271;SDS011;13997;48.902;12.472;2023-01-10T01:06:41;3.58;;;2.00;;
26271;SDS011;13997;48.902;12.472;2023-01-10T01:09:08;5.35;;;2.28;;
26271;SDS011;13997;48.902;12.472;2023-01-10T01:11:33;3.97;;;2.13;;
26271;SDS011;13997;48.902;12.472;2023-01-10T01:13:59;6.57;;;2.20;;
26271;SDS011;13997;48.902;12.472;2023-01-10T01:16:24;3.78;;;2.08;;
26271;SDS011;13997;48.902;12.472;2023-01-10T01:18:50;4.32;;;2.10;;
26271;SDS011;13997;48.902;12.472;2023-01-10T01:21:15;5.05;;;2.00;;
26271;SDS011;13997;48.902;12.472;2023-01-10T01:23:41;3.88;;;1.95;;
26271;SDS011;13997;48.902;12.472;2023-01-10T01:26:07;4.38;;;2.05;;
26271;SDS011;13997;48.902;12.472;2023-01-10T01:28:32;4.00;;;2.05;;
26271;SDS011;13997;48.902;12.472;2023-01-10T01:30:58;3.30;;;2.30;;
26271;SDS011;13997;48.902;12.472;2023-01-10T01:33:24;7.15;;;2.17;;
26271;SDS011;13997;48.902;12.472;2023-01-10T01:35:49;4.10;;;2.15;;
26271;SDS011;13997;48.902;12.472;2023-01-10T01:38:15;5.88;;;2.10;;
26271;SDS011;13997;48.902;12.472;2023-01-10T01:40:41;3.47;;;2.13;;
26271;SDS011;13997;48.902;12.472;2023-01-10T01:43:26;5.57;;;1.95;;
26271;SDS011;13997;48.902;12.472;2023-01-10T01:45:53;6.82;;;2.20;;
26271;SDS011;13997;48.902;12.472;2023-01-10T01:48:24;4.40;;;1.80;;
26271;SDS011;13997;48.902;12.472;2023-01-10T01:51:05;2.75;;;1.80;;
26271;SDS011;13997;48.902;12.472;2023-01-10T01:53:45;5.35;;;2.25;;
26271;SDS011;13997;48.902;12.472;2023-01-10T01:56:29;5.95;;;1.90;;
26271;SDS011;13997;48.902;12.472;2023-01-10T01:59:20;4.45;;;1.75;;
26271;SDS011;13997;48.902;12.472;2023-01-10T02:01:49;5.03;;;2.05;;
26271;SDS011;13997;48.902;12.472;2023-01-10T02:04:26;8.55;;;2.30;;
26271;SDS011;13997;48.902;12.472;2023-01-10T02:06:55;9.23;;;2.55;;
26271;SDS011;13997;48.902;12.472;2023-01-10T02:09:24;11.35;;;2.53;;
26271;SDS011;13997;48.902;12.472;2023-01-10T02:11:56;3.65;;;2.17;;
26271;SDS011;13997;48.902;12.472;2023-01-10T02:14:22;7.00;;;2.30;;
26271;SDS011;13997;48.902;12.472;2023-01-10T02:16:50;4.68;;;2.00;;
26271;SDS011;13997;48.902;12.472;2023-01-10T02:19:41;4.68;;;2.10;;
26271;SDS011;13997;48.902;12.472;2023-01-10T02:42:47;3.45;;;2.47;;
26271;SDS011;13997;48.902;12.472;2023-01-10T02:45:34;4.88;;;2.75;;
26271;SDS011;13997;48.902;12.472;2023-01-10T02:48:06;5.45;;;2.65;;
26271;SDS011;13997;48.902;12.472;2023-01-10T02:53:02;3.35;;;2.65;;
26271;SDS011;13997;48.902;12.472;2023-01-10T03:01:07;4.30;;;3.08;;
26271;SDS011;13997;48.902;12.472;2023-01-10T03:03:47;3.80;;;2.92;;
26271;SDS011;13997;48.902;12.472;2023-01-10T03:06:38;4.28;;;3.20;;
26271;SDS011;13997;48.902;12.472;2023-01-10T03:09:15;7.30;;;3.47;;
26271;SDS011;13997;48.902;12.472;2023-01-10T03:12:00;4.20;;;3.28;;
26271;SDS011;13997;48.902;12.472;2023-01-10T03:14:35;7.40;;;4.00;;
26271;SDS011;13997;48.902;12.472;2023-01-10T03:17:05;5.43;;;3.85;;
26271;SDS011;13997;48.902;12.472;2023-01-10T03:19:34;4.85;;;3.85;;
26271;SDS011;13997;48.902;12.472;2023-01-10T03:22:07;6.00;;;3.78;;
26271;SDS011;13997;48.902;12.472;2023-01-10T03:24:35;5.45;;;3.70;;
26271;SDS011;13997;48.902;12.472;2023-01-10T03:29:51;5.28;;;3.67;;
26271;SDS011;13997;48.902;12.472;2023-01-10T03:32:24;6.88;;;3.70;;
26271;SDS011;13997;48.902;12.472;2023-01-10T03:34:54;5.30;;;3.72;;
26271;SDS011;13997;48.902;12.472;2023-01-10T03:37:36;3.95;;;3.25;;
26271;SDS011;13997;48.902;12.472;2023-01-10T03:40:23;4.60;;;3.45;;
26271;SDS011;13997;48.902;12.472;2023-01-10T03:43:15;8.48;;;3.90;;
26271;SDS011;13997;48.902;12.472;2023-01-10T03:46:19;5.22;;;3.45;;
26271;SDS011;13997;48.902;12.472;2023-01-10T03:49:08;6.00;;;3.67;;
26271;SDS011;13997;48.902;12.472;2023-01-10T03:51:35;6.65;;;3.38;;
26271;SDS011;13997;48.902;12.472;2023-01-10T03:54:03;3.90;;;3.40;;
26271;SDS011;13997;48.902;12.472;2023-01-10T03:56:29;4.28;;;3.38;;
26271;SDS011;13997;48.902;12.472;2023-01-10T03:58:55;6.03;;;3.47;;
26271;SDS011;13997;48.902;12.472;2023-01-10T04:01:21;4.03;;;2.97;;
26271;SDS011;13997;48.902;12.472;2023-01-10T04:03:46;4.95;;;3.00;;
26271;SDS011;13997;48.902;12.472;2023-01-10T04:06:12;6.30;;;3.45;;
26271;SDS011;13997;48.902;12.472;2023-01-10T04:08:37;4.88;;;3.53;;
26271;SDS011;13997;48.902;12.472;2023-01-10T04:11:03;4.82;;;3.50;;
26271;SDS011;13997;48.902;12.472;2023-01-10T04:13:29;5.05;;;3.80;;
26271;SDS011;13997;48.902;12.472;2023-01-10T04:15:54;7.35;;;3.13;;
26271;SDS011;13997;48.902;12.472;2023-01-10T04:18:20;4.05;;;3.53;;
26271;SDS011;13997;48.902;12.472;2023-01-10T04:20:45;4.75;;;3.25;;
26271;SDS011;13997;48.902;12.472;2023-01-10T04:23:11;5.75;;;3.08;;
26271;SDS011;13997;48.902;12.472;2023-01-10T04:25:36;4.32;;;3.40;;
26271;SDS011;13997;48.902;12.472;2023-01-10T04:28:02;5.07;;;3.30;;
26271;SDS011;13997;48.902;12.472;2023-01-10T04:30:28;6.60;;;3.47;;
26271;SDS011;13997;48.902;12.472;2023-01-10T04:32:53;5.78;;;3.00;;
26271;SDS011;13997;48.902;12.472;2023-01-10T04:35:19;8.02;;;3.55;;
26271;SDS011;13997;48.902;12.472;2023-01-10T04:37:45;4.32;;;3.38;;
26271;SDS011;13997;48.902;12.472;2023-01-10T04:40:11;4.55;;;3.50;;
26271;SDS011;13997;48.902;12.472;2023-01-10T04:42:37;8.35;;;3.42;;
26271;SDS011;13997;48.902;12.472;2023-01-10T04:45:02;4.20;;;3.47;;
26271;SDS011;13997;48.902;12.472;2023-01-10T04:47:29;4.50;;;3.60;;
26271;SDS011;13997;48.902;12.472;2023-01-10T04:49:54;6.25;;;3.60;;
26271;SDS011;13997;48.902;12.472;2023-01-10T04:52:20;5.45;;;3.90;;
26271;SDS011;13997;48.902;12.472;2023-01-10T04:54:45;8.38;;;4.72;;
26271;SDS011;13997;48.902;12.472;2023-01-10T04:57:11;5.32;;;3.92;;
26271;SDS011;13997;48.902;12.472;2023-01-10T04:59:36;8.20;;;4.18;;
26271;SDS011;13997;48.902;12.472;2023-01-10T05:02:02;6.47;;;3.50;;
26271;SDS011;13997;48.902;12.472;2023-01-10T05:04:28;6.55;;;3.72;;
26271;SDS011;13997;48.902;12.472;2023-01-10T05:06:53;6.55;;;3.70;;
26271;SDS011;13997;48.902;12.472;2023-01-10T05:09:19;7.93;;;3.90;;
26271;SDS011;13997;48.902;12.472;2023-01-10T05:11:44;5.60;;;3.88;;
26271;SDS011;13997;48.902;12.472;2023-01-10T05:14:10;8.07;;;4.82;;
26271;SDS011;13997;48.902;12.472;2023-01-10T05:16:36;7.88;;;5.38;;
26271;SDS011;13997;48.902;12.472;2023-01-10T05:19:01;8.45;;;5.45;;
26271;SDS011;13997;48.902;12.472;2023-01-10T05:21:27;15.07;;;5.65;;
26271;SDS011;13997;48.902;12.472;2023-01-10T05:23:52;9.07;;;5.63;;
26271;SDS011;13997;48.902;12.472;2023-01-10T05:26:19;9.95;;;6.18;;
26271;SDS011;13997;48.902;12.472;2023-01-10T05:28:46;13.13;;;6.22;;
26271;SDS011;13997;48.902;12.472;2023-01-10T05:31:13;9.60;;;5.40;;
26271;SDS011;13997;48.902;12.472;2023-01-10T05:33:46;8.55;;;5.53;;
26271;SDS011;13997;48.902;12.472;2023-01-10T05:36:14;9.02;;;6.43;;
26271;SDS011;13997;48.902;12.472;2023-01-10T05:38:39;15.20;;;6.30;;
26271;SDS011;13997;48.902;12.472;2023-01-10T05:41:05;12.80;;;6.30;;
26271;SDS011;13997;48.902;12.472;2023-01-10T05:43:31;10.57;;;6.03;;
26271;SDS011;13997;48.902;12.472;2023-01-10T05:45:56;10.52;;;6.57;;
26271;SDS011;13997;48.902;12.472;2023-01-10T05:48:22;11.38;;;6.10;;
26271;SDS011;13997;48.902;12.472;2023-01-10T05:50:48;12.40;;;6.63;;
26271;SDS011;13997;48.902;12.472;2023-01-10T05:53:15;23.90;;;12.27;;
26271;SDS011;13997;48.902;12.472;2023-01-10T05:55:40;24.92;;;10.60;;
26271;SDS011;13997;48.902;12.472;2023-01-10T05:58:06;23.85;;;10.07;;
26271;SDS011;13997;48.902;12.472;2023-01-10T06:00:35;11.73;;;7.38;;
26271;SDS011;13997;48.902;12.472;2023-01-10T06:03:01;11.57;;;6.00;;
26271;SDS011;13997;48.902;12.472;2023-01-10T06:05:26;9.93;;;6.18;;
26271;SDS011;13997;48.902;12.472;2023-01-10T06:07:52;12.05;;;6.50;;
26271;SDS011;13997;48.902;12.472;2023-01-10T06:10:17;7.80;;;6.10;;
26271;SDS011;13997;48.902;12.472;2023-01-10T06:12:43;12.43;;;6.63;;
26271;SDS011;13997;48.902;12.472;2023-01-10T06:15:09;11.40;;;6.63;;
26271;SDS011;13997;48.902;12.472;2023-01-10T06:17:35;8.57;;;6.45;;
26271;SDS011;13997;48.902;12.472;2023-01-10T06:20:00;9.05;;;6.75;;
26271;SDS011;13997;48.902;12.472;2023-01-10T06:22:26;9.85;;;6.32;;
26271;SDS011;13997;48.902;12.472;2023-01-10T06:24:52;11.85;;;6.13;;
26271;SDS011;13997;48.902;12.472;2023-01-10T06:27:19;11.43;;;6.75;;
26271;SDS011;13997;48.902;12.472;2023-01-10T06:29:45;16.05;;;8.85;;
26271;SDS011;13997;48.902;12.472;2023-01-10T06:32:11;12.27;;;7.35;;
26271;SDS011;13997;48.902;12.472;2023-01-10T06:34:36;10.27;;;7.18;;
26271;SDS011;13997;48.902;12.472;2023-01-10T06:37:02;10.27;;;6.70;;
26271;SDS011;13997;48.902;12.472;2023-01-10T06:39:28;12.98;;;7.90;;
26271;SDS011;13997;48.902;12.472;2023-01-10T06:41:53;12.73;;;8.25;;
26271;SDS011;13997;48.902;12.472;2023-01-10T06:44:19;15.07;;;9.10;;
26271;SDS011;13997;48.902;12.472;2023-01-10T06:46:44;12.52;;;8.82;;
26271;SDS011;13997;48.902;12.472;2023-01-10T06:49:10;14.77;;;9.15;;
26271;SDS011;13997;48.902;12.472;2023-01-10T06:51:36;11.88;;;8.23;;
26271;SDS011;13997;48.902;12.472;2023-01-10T06:54:01;12.30;;;8.70;;
26271;SDS011;13997;48.902;12.472;2023-01-10T06:56:27;13.73;;;8.95;;
26271;SDS011;13997;48.902;12.472;2023-01-10T06:58:52;11.52;;;7.80;;
26271;SDS011;13997;48.902;12.472;2023-01-10T07:01:19;12.43;;;7.32;;
26271;SDS011;13997;48.902;12.472;2023-01-10T07:03:45;12.13;;;7.78;;
26271;SDS011;13997;48.902;12.472;2023-01-10T07:06:11;11.18;;;7.47;;
26271;SDS011;13997;48.902;12.472;2023-01-10T07:08:38;15.48;;;9.65;;
26271;SDS011;13997;48.902;12.472;2023-01-10T07:11:05;12.43;;;8.18;;
26271;SDS011;13997;48.902;12.472;2023-01-10T07:13:32;15.57;;;9.10;;
26271;SDS011;13997;48.902;12.472;2023-01-10T07:16:04;23.25;;;12.52;;
26271;SDS011;13997;48.902;12.472;2023-01-10T07:18:35;20.52;;;12.65;;
26271;SDS011;13997;48.902;12.472;2023-01-10T07:21:02;19.85;;;9.55;;
26271;SDS011;13997;48.902;12.472;2023-01-10T07:23:28;10.52;;;7.90;;
26271;SDS011;13997;48.902;12.472;2023-01-10T07:25:55;9.85;;;7.05;;
26271;SDS011;13997;48.902;12.472;2023-01-10T07:28:31;10.48;;;7.28;;
26271;SDS011;13997;48.902;12.472;2023-01-10T07:31:01;11.77;;;8.20;;
26271;SDS011;13997;48.902;12.472;2023-01-10T07:33:28;9.15;;;7.25;;
26271;SDS011;13997;48.902;12.472;2023-01-10T07:35:54;11.98;;;7.40;;
26271;SDS011;13997;48.902;12.472;2023-01-10T07:38:19;11.05;;;6.90;;
26271;SDS011;13997;48.902;12.472;2023-01-10T07:40:45;11.30;;;7.13;;
26271;SDS011;13997;48.902;12.472;2023-01-10T07:43:11;11.00;;;7.25;;
26271;SDS011;13997;48.902;12.472;2023-01-10T07:45:36;11.38;;;6.82;;
26271;SDS011;13997;48.902;12.472;2023-01-10T07:48:02;9.15;;;6.38;;
26271;SDS011;13997;48.902;12.472;2023-01-10T07:50:30;12.57;;;6.70;;
26271;SDS011;13997;48.902;12.472;2023-01-10T07:52:58;14.90;;;7.00;;
26271;SDS011;13997;48.902;12.472;2023-01-10T07:55:25;16.23;;;7.22;;
26271;SDS011;13997;48.902;12.472;2023-01-10T07:57:51;10.63;;;5.93;;
26271;SDS011;13997;48.902;12.472;2023-01-10T08:00:17;12.48;;;7.15;;
26271;SDS011;13997;48.902;12.472;2023-01-10T08:02:43;10.75;;;6.78;;
26271;SDS011;13997;48.902;12.472;2023-01-10T08:05:09;10.15;;;7.40;;
26271;SDS011;13997;48.902;12.472;2023-01-10T08:07:35;11.45;;;7.93;;
26271;SDS011;13997;48.902;12.472;2023-01-10T08:10:02;16.02;;;9.02;;
26271;SDS011;13997;48.902;12.472;2023-01-10T08:12:28;9.98;;;6.57;;
26271;SDS011;13997;48.902;12.472;2023-01-10T08:14:54;11.52;;;6.60;;
26271;SDS011;13997;48.902;12.472;2023-01-10T08:17:20;11.60;;;7.40;;
26271;SDS011;13997;48.902;12.472;2023-01-10T08:19:47;10.55;;;6.70;;
26271;SDS011;13997;48.902;12.472;2023-01-10T08:22:12;16.83;;;7.85;;
26271;SDS011;13997;48.902;12.472;2023-01-10T08:24:38;12.65;;;7.22;;
26271;SDS011;13997;48.902;12.472;2023-01-10T08:27:04;12.05;;;7.57;;
26271;SDS011;13997;48.902;12.472;2023-01-10T08:29:29;12.23;;;7.72;;
26271;SDS011;13997;48.902;12.472;2023-01-10T08:31:55;11.45;;;7.47;;
26271;SDS011;13997;48.902;12.472;2023-01-10T08:34:22;12.15;;;7.40;;
26271;SDS011;13997;48.902;12.472;2023-01-10T08:36:49;13.85;;;9.38;;
26271;SDS011;13997;48.902;12.472;2023-01-10T08:39:15;19.90;;;10.25;;
26271;SDS011;13997;48.902;12.472;2023-01-10T08:41:41;16.35;;;10.18;;
26271;SDS011;13997;48.902;12.472;2023-01-10T08:44:07;20.20;;;10.05;;
26271;SDS011;13997;48.902;12.472;2023-01-10T08:46:32;23.65;;;10.77;;
26271;SDS011;13997;48.902;12.472;2023-01-10T08:48:58;14.45;;;9.90;;
26271;SDS011;13997;48.902;12.472;2023-01-10T08:51:24;14.02;;;9.68;;
26271;SDS011;13997;48.902;12.472;2023-01-10T08:53:50;14.63;;;9.10;;
26271;SDS011;13997;48.902;12.472;2023-01-10T08:56:16;13.50;;;8.68;;
26271;SDS011;13997;48.902;12.472;2023-01-10T08:58:41;13.45;;;8.45;;
26271;SDS011;13997;48.902;12.472;2023-01-10T09:01:07;11.68;;;8.30;;
26271;SDS011;13997;48.902;12.472;2023-01-10T09:03:33;13.80;;;8.57;;
26271;SDS011;13997;48.902;12.472;2023-01-10T09:05:59;13.18;;;8.55;;
26271;SDS011;13997;48.902;12.472;2023-01-10T09:08:25;13.68;;;8.25;;
26271;SDS011;13997;48.902;12.472;2023-01-10T09:10:51;9.93;;;7.22;;
26271;SDS011;13997;48.902;12.472;2023-01-10T09:13:17;12.25;;;8.20;;
26271;SDS011;13997;48.902;12.472;2023-01-10T09:15:43;12.88;;;8.25;;
26271;SDS011;13997;48.902;12.472;2023-01-10T09:18:09;12.07;;;8.63;;
26271;SDS011;13997;48.902;12.472;2023-01-10T09:20:37;18.75;;;10.40;;
26271;SDS011;13997;48.902;12.472;2023-01-10T09:23:21;15.65;;;8.18;;
26271;SDS011;13997;48.902;12.472;2023-01-10T09:25:49;13.02;;;9.07;;
26271;SDS011;13997;48.902;12.472;2023-01-10T09:28:17;14.25;;;8.80;;
26271;SDS011;13997;48.902;12.472;2023-01-10T09:30:43;17.20;;;8.88;;
26271;SDS011;13997;48.902;12.472;2023-01-10T09:33:09;12.23;;;7.25;;
26271;SDS011;13997;48.902;12.472;2023-01-10T09:35:36;11.70;;;7.00;;
26271;SDS011;13997;48.902;12.472;2023-01-10T09:38:04;13.27;;;6.93;;
26271;SDS011;13997;48.902;12.472;2023-01-10T09:43:45;15.00;;;7.80;;
26271;SDS011;13997;48.902;12.472;2023-01-10T09:51:51;11.07;;;5.80;;
26271;SDS011;13997;48.902;12.472;2023-01-10T09:59:18;12.13;;;5.43;;
26271;SDS011;13997;48.902;12.472;2023-01-10T10:01:47;9.15;;;4.43;;
26271;SDS011;13997;48.902;12.472;2023-01-10T10:06:51;12.98;;;6.65;;
26271;SDS011;13997;48.902;12.472;2023-01-10T10:09:22;9.35;;;5.72;;
26271;SDS011;13997;48.902;12.472;2023-01-10T10:12:06;10.88;;;6.13;;
26271;SDS011;13997;48.902;12.472;2023-01-10T10:17:45;6.43;;;4.60;;
26271;SDS011;13997;48.902;12.472;2023-01-10T10:20:43;7.50;;;3.42;;
26271;SDS011;13997;48.902;12.472;2023-01-10T10:23:16;9.10;;;3.97;;
26271;SDS011;13997;48.902;12.472;2023-01-10T10:26:01;12.98;;;5.25;;
26271;SDS011;13997;48.902;12.472;2023-01-10T10:31:26;8.57;;;4.35;;
26271;SDS011;13997;48.902;12.472;2023-01-10T10:36:49;8.05;;;4.90;;
26271;SDS011;13997;48.902;12.472;2023-01-10T10:39:22;14.68;;;5.72;;
26271;SDS011;13997;48.902;12.472;2023-01-10T10:42:16;14.30;;;7.30;;
26271;SDS011;13997;48.902;12.472;2023-01-10T10:47:16;8.50;;;5.75;;
26271;SDS011;13997;48.902;12.472;2023-01-10T10:49:55;15.82;;;6.40;;
26271;SDS011;13997;48.902;12.472;2023-01-10T10:52:24;12.43;;;6.10;;
26271;SDS011;13997;48.902;12.472;2023-01-10T10:54:51;12.40;;;6.28;;
26271;SDS011;13997;48.902;12.472;2023-01-10T10:57:18;14.38;;;5.53;;
26271;SDS011;13997;48.902;12.472;2023-01-10T10:59:48;11.65;;;4.53;;
26271;SDS011;13997;48.902;12.472;2023-01-10T11:02:30;12.07;;;3.88;;
26271;SDS011;13997;48.902;12.472;2023-01-10T11:04:58;7.97;;;3.05;;
26271;SDS011;13997;48.902;12.472;2023-01-10T11:07:28;6.60;;;2.88;;
26271;SDS011;13997;48.902;12.472;2023-01-10T11:10:04;6.97;;;2.67;;
26271;SDS011;13997;48.902;12.472;2023-01-10T11:12:59;7.97;;;2.65;;
26271;SDS011;13997;48.902;12.472;2023-01-10T11:15:36;7.25;;;2.60;;
26271;SDS011;13997;48.902;12.472;2023-01-10T11:18:05;11.77;;;3.20;;
26271;SDS011;13997;48.902;12.472;2023-01-10T11:20:35;8.02;;;2.95;;
26271;SDS011;13997;48.902;12.472;2023-01-10T11:23:01;11.75;;;3.28;;
26271;SDS011;13997;48.902;12.472;2023-01-10T11:25:28;10.93;;;3.65;;
26271;SDS011;13997;48.902;12.472;2023-01-10T11:27:55;17.33;;;6.63;;
26271;SDS011;13997;48.902;12.472;2023-01-10T11:30:23;13.23;;;4.93;;
26271;SDS011;13997;48.902;12.472;2023-01-10T11:33:01;8.98;;;3.72;;
26271;SDS011;13997;48.902;12.472;2023-01-10T11:38:05;15.23;;;3.88;;
26271;SDS011;13997;48.902;12.472;2023-01-10T11:43:37;10.43;;;4.72;;
26271;SDS011;13997;48.902;12.472;2023-01-10T11:46:05;19.40;;;4.65;;
26271;SDS011;13997;48.902;12.472;2023-01-10T11:48:43;9.45;;;4.00;;
26271;SDS011;13997;48.902;12.472;2023-01-10T11:51:28;18.48;;;4.60;;
26271;SDS011;13997;48.902;12.472;2023-01-10T11:54:01;15.23;;;4.35;;
26271;SDS011;13997;48.902;12.472;2023-01-10T11:56:34;18.00;;;3.90;;
26271;SDS011;13997;48.902;12.472;2023-01-10T11:59:21;9.75;;;3.75;;
26271;SDS011;13997;48.902;12.472;2023-01-10T12:04:46;17.95;;;4.32;;
26271;SDS011;13997;48.902;12.472;2023-01-10T12:07:14;11.80;;;3.65;;
26271;SDS011;13997;48.902;12.472;2023-01-10T12:09:44;11.27;;;3.33;;
26271;SDS011;13997;48.902;12.472;2023-01-10T12:12:24;15.20;;;3.47;;
26271;SDS011;13997;48.902;12.472;2023-01-10T12:14:51;12.20;;;3.72;;
26271;SDS011;13997;48.902;12.472;2023-01-10T12:17:20;9.52;;;3.50;;
26271;SDS011;13997;48.902;12.472;2023-01-10T12:19:46;10.13;;;3.38;;
26271;SDS011;13997;48.902;12.472;2023-01-10T12:22:13;11.38;;;4.15;;
26271;SDS011;13997;48.902;12.472;2023-01-10T12:24:41;10.45;;;4.18;;
26271;SDS011;13997;48.902;12.472;2023-01-10T12:27:12;13.52;;;4.20;;
26271;SDS011;13997;48.902;12.472;2023-01-10T12:30:40;9.35;;;3.60;;
26271;SDS011;13997;48.902;12.472;2023-01-10T12:35:16;11.70;;;3.67;;
26271;SDS011;13997;48.902;12.472;2023-01-10T12:37:54;13.88;;;3.28;;
26271;SDS011;13997;48.902;12.472;2023-01-10T12:40:30;8.63;;;3.53;;
26271;SDS011;13997;48.902;12.472;2023-01-10T12:43:19;13.25;;;4.70;;
26271;SDS011;13997;48.902;12.472;2023-01-10T12:46:46;12.40;;;3.00;;
26271;SDS011;13997;48.902;12.472;2023-01-10T12:49:08;14.68;;;3.50;;
26271;SDS011;13997;48.902;12.472;2023-01-10T12:51:48;13.88;;;3.42;;
26271;SDS011;13997;48.902;12.472;2023-01-10T12:54:16;11.93;;;3.08;;
26271;SDS011;13997;48.902;12.472;2023-01-10T12:56:45;15.27;;;3.90;;
26271;SDS011;13997;48.902;12.472;2023-01-10T12:59:16;11.05;;;3.17;;
26271;SDS011;13997;48.902;12.472;2023-01-10T13:02:01;10.27;;;3.38;;
26271;SDS011;13997;48.902;12.472;2023-01-10T13:04:52;13.73;;;3.08;;
26271;SDS011;13997;48.902;12.472;2023-01-10T13:07:26;12.30;;;3.25;;
26271;SDS011;13997;48.902;12.472;2023-01-10T13:09:56;11.75;;;3.10;;
26271;SDS011;13997;48.902;12.472;2023-01-10T13:17:48;15.07;;;3.38;;
26271;SDS011;13997;48.902;12.472;2023-01-10T13:22:49;10.82;;;3.60;;
26271;SDS011;13997;48.902;12.472;2023-01-10T13:25:20;16.45;;;4.00;;
26271;SDS011;13997;48.902;12.472;2023-01-10T13:28:01;13.65;;;3.33;;
26271;SDS011;13997;48.902;12.472;2023-01-10T13:30:35;8.55;;;2.90;;
26271;SDS011;13997;48.902;12.472;2023-01-10T13:35:51;15.73;;;3.80;;
26271;SDS011;13997;48.902;12.472;2023-01-10T13:39:20;14.55;;;4.55;;
26271;SDS011;13997;48.902;12.472;2023-01-10T13:41:17;19.85;;;4.78;;
26271;SDS011;13997;48.902;12.472;2023-01-10T13:44:06;12.90;;;3.80;;
26271;SDS011;13997;48.902;12.472;2023-01-10T13:46:34;12.65;;;3.45;;
26271;SDS011;13997;48.902;12.472;2023-01-10T13:51:35;14.15;;;4.35;;
26271;SDS011;13997;48.902;12.472;2023-01-10T13:54:47;11.07;;;3.80;;
26271;SDS011;13997;48.902;12.472;2023-01-10T13:56:51;18.67;;;5.40;;
26271;SDS011;13997;48.902;12.472;2023-01-10T14:02:25;14.38;;;3.58;;
26271;SDS011;13997;48.902;12.472;2023-01-10T14:05:06;10.93;;;3.22;;
26271;SDS011;13997;48.902;12.472;2023-01-10T14:07:44;14.07;;;3.47;;
26271;SDS011;13997;48.902;12.472;2023-01-10T14:10:29;14.30;;;2.85;;
26271;SDS011;13997;48.902;12.472;2023-01-10T14:15:37;10.48;;;2.85;;
26271;SDS011;13997;48.902;12.472;2023-01-10T14:21:02;20.73;;;3.53;;
26271;SDS011;13997;48.902;12.472;2023-01-10T14:23:40;18.25;;;4.07;;
26271;SDS011;13997;48.902;12.472;2023-01-10T14:26:18;18.48;;;4.20;;
26271;SDS011;13997;48.902;12.472;2023-01-10T14:28:49;13.18;;;3.35;;
26271;SDS011;13997;48.902;12.472;2023-01-10T14:31:19;17.15;;;3.05;;
26271;SDS011;13997;48.902;12.472;2023-01-10T14:33:47;16.70;;;3.60;;
26271;SDS011;13997;48.902;12.472;2023-01-10T14:36:14;13.23;;;3.10;;
26271;SDS011;13997;48.902;12.472;2023-01-10T14:38:52;15.65;;;3.08;;
26271;SDS011;13997;48.902;12.472;2023-01-10T14:46:46;12.65;;;3.03;;
26271;SDS011;13997;48.902;12.472;2023-01-10T14:52:18;19.20;;;2.72;;
26271;SDS011;13997;48.902;12.472;2023-01-10T14:54:46;15.23;;;3.03;;
26271;SDS011;13997;48.902;12.472;2023-01-10T14:57:22;14.35;;;3.38;;
26271;SDS011;13997;48.902;12.472;2023-01-10T14:59:53;17.08;;;4.55;;
26271;SDS011;13997;48.902;12.472;2023-01-10T15:02:45;12.18;;;5.10;;
26271;SDS011;13997;48.902;12.472;2023-01-10T15:05:17;18.00;;;5.63;;
26271;SDS011;13997;48.902;12.472;2023-01-10T15:07:45;18.33;;;5.90;;
26271;SDS011;13997;48.902;12.472;2023-01-10T15:10:27;12.50;;;4.25;;
26271;SDS011;13997;48.902;12.472;2023-01-10T15:12:59;11.48;;;3.30;;
26271;SDS011;13997;48.902;12.472;2023-01-10T15:15:34;13.40;;;3.58;;
26271;SDS011;13997;48.902;12.472;2023-01-10T15:18:02;9.05;;;2.92;;
26271;SDS011;13997;48.902;12.472;2023-01-10T15:20:39;9.45;;;2.70;;
26271;SDS011;13997;48.902;12.472;2023-01-10T15:23:11;11.20;;;2.80;;
26271;SDS011;13997;48.902;12.472;2023-01-10T15:25:38;9.48;;;3.13;;
26271;SDS011;13997;48.902;12.472;2023-01-10T15:28:05;15.95;;;2.80;;
26271;SDS011;13997;48.902;12.472;2023-01-10T15:30:43;11.38;;;2.33;;
26271;SDS011;13997;48.902;12.472;2023-01-10T15:33:13;14.48;;;2.63;;
26271;SDS011;13997;48.902;12.472;2023-01-10T15:35:43;15.32;;;2.92;;
26271;SDS011;13997;48.902;12.472;2023-01-10T15:38:13;8.73;;;2.80;;
26271;SDS011;13997;48.902;12.472;2023-01-10T15:43:23;6.03;;;2.28;;
26271;SDS011;13997;48.902;12.472;2023-01-10T15:45:51;11.70;;;2.30;;
26271;SDS011;13997;48.902;12.472;2023-01-10T15:50:54;10.65;;;2.67;;
26271;SDS011;13997;48.902;12.472;2023-01-10T15:58:59;8.75;;;2.70;;
26271;SDS011;13997;48.902;12.472;2023-01-10T16:01:27;19.42;;;2.67;;
26271;SDS011;13997;48.902;12.472;2023-01-10T16:03:55;9.35;;;2.50;;
26271;SDS011;13997;48.902;12.472;2023-01-10T16:06:30;8.88;;;2.70;;
26271;SDS011;13997;48.902;12.472;2023-01-10T16:08:59;13.00;;;3.53;;
26271;SDS011;13997;48.902;12.472;2023-01-10T16:11:32;14.82;;;5.50;;
26271;SDS011;13997;48.902;12.472;2023-01-10T16:14:21;17.80;;;5.53;;
26271;SDS011;13997;48.902;12.472;2023-01-10T16:16:47;16.70;;;5.28;;
26271;SDS011;13997;48.902;12.472;2023-01-10T16:19:13;16.23;;;4.70;;
26271;SDS011;13997;48.902;12.472;2023-01-10T16:21:40;11.25;;;3.92;;
26271;SDS011;13997;48.902;12.472;2023-01-10T16:24:16;13.95;;;4.75;;
26271;SDS011;13997;48.902;12.472;2023-01-10T16:26:45;12.48;;;4.20;;
26271;SDS011;13997;48.902;12.472;2023-01-10T16:29:11;15.25;;;4.13;;
26271;SDS011;13997;48.902;12.472;2023-01-10T16:31:37;17.17;;;5.53;;
26271;SDS011;13997;48.902;12.472;2023-01-10T16:34:03;15.25;;;4.90;;